Time;durP1;ratioP1;P1;durP2;ratioP2;P2;SDS_P1;SDS_P2;PMS_P1;PMS_P2;Temp;Humidity;BMP_temperature;BMP_pressure;BME280_temperature;BME280_humidity;BME280_pressure;Samples;Min_cycle;Max_cycle;Signal;HPM_P1;HPM_P2
2021/11/13 00:00:41;;;;;;;43.40;21.57;;;9.70;99.90;;;;;;5089999;27;20203;-65
2021/11/13 00:03:20;;;;;;;41.53;20.93;;;9.70;99.90;;;;;;5099307;28;20191;-64
2021/11/13 00:05:49;;;;;;;44.63;21.87;;;9.70;99.90;;;;;;5099757;27;20222;-64
2021/11/13 00:08:18;;;;;;;43.70;21.53;;;9.70;99.90;;;;;;5107263;27;20244;-64
2021/11/13 00:10:53;;;;;;;34.93;20.63;;;9.70;99.90;;;;;;5100642;27;20207;-64
2021/11/13 00:13:24;;;;;;;38.43;20.50;;;9.70;99.90;;;;;;5108417;27;20582;-64
2021/11/13 00:15:53;;;;;;;42.93;20.97;;;9.70;99.90;;;;;;5113974;27;20207;-64
2021/11/13 00:18:24;;;;;;;40.30;19.57;;;9.70;99.90;;;;;;5103587;28;20226;-64
2021/11/13 00:20:52;;;;;;;39.30;19.73;;;9.70;99.90;;;;;;5104999;28;20202;-64
2021/11/13 00:23:21;;;;;;;34.80;20.37;;;9.80;99.90;;;;;;5134173;27;20601;-65
2021/11/13 00:25:50;;;;;;;38.77;20.73;;;9.80;99.90;;;;;;5112280;27;20214;-65
2021/11/13 00:28:19;;;;;;;37.33;20.13;;;9.80;99.90;;;;;;5109153;27;20199;-64
2021/11/13 00:30:48;;;;;;;37.97;20.63;;;9.70;99.90;;;;;;5107493;28;20595;-65
2021/11/13 00:33:16;;;;;;;39.13;20.53;;;9.80;99.90;;;;;;5103867;28;20573;-65
2021/11/13 00:35:47;;;;;;;38.73;21.83;;;9.80;99.90;;;;;;5104847;27;21014;-64
2021/11/13 00:38:16;;;;;;;40.17;21.83;;;9.70;99.90;;;;;;5107788;28;20230;-65
2021/11/13 00:40:45;;;;;;;41.77;21.03;;;9.80;99.90;;;;;;5105094;28;20249;-65
2021/11/13 00:43:22;;;;;;;43.20;21.33;;;9.80;99.90;;;;;;5130088;27;20536;-65
2021/11/13 00:45:51;;;;;;;38.07;21.53;;;9.80;99.90;;;;;;5109771;28;20210;-65
2021/11/13 00:48:19;;;;;;;41.03;22.37;;;9.70;99.90;;;;;;5105006;28;20186;-65
2021/11/13 00:50:50;;;;;;;38.70;22.33;;;9.70;99.90;;;;;;5099177;28;20203;-65
2021/11/13 00:53:19;;;;;;;36.90;21.90;;;9.70;99.90;;;;;;5098128;27;20202;-65
2021/11/13 00:55:47;;;;;;;38.97;22.27;;;9.70;99.90;;;;;;5101197;28;20217;-65
2021/11/13 00:58:16;;;;;;;37.93;22.33;;;9.80;99.90;;;;;;5105594;28;20194;-64
2021/11/13 01:00:45;;;;;;;41.03;23.00;;;9.80;99.90;;;;;;5098389;28;20191;-65
2021/11/13 01:03:14;;;;;;;47.27;22.97;;;9.70;99.90;;;;;;5100383;28;20203;-65
2021/11/13 01:05:43;;;;;;;45.63;23.10;;;9.70;99.90;;;;;;5106459;28;20210;-65
2021/11/13 01:08:13;;;;;;;48.03;23.67;;;9.70;99.90;;;;;;5114595;28;20222;-64
2021/11/13 01:10:42;;;;;;;39.40;22.73;;;9.70;99.90;;;;;;5136381;27;20285;-65
2021/11/13 01:13:14;;;;;;;42.53;22.17;;;9.70;99.90;;;;;;5107603;28;20274;-65
2021/11/13 01:15:43;;;;;;;42.07;23.87;;;9.80;99.90;;;;;;5109422;28;20202;-65
2021/11/13 01:18:12;;;;;;;53.63;25.97;;;9.80;99.90;;;;;;5108861;28;20191;-64
2021/11/13 01:20:44;;;;;;;48.03;24.87;;;9.80;99.90;;;;;;5105861;27;20283;-65
2021/11/13 01:23:14;;;;;;;52.07;26.03;;;9.80;99.90;;;;;;5146921;27;20788;-64
2021/11/13 01:25:44;;;;;;;46.43;27.03;;;9.80;99.90;;;;;;5106843;27;20300;-64
2021/11/13 01:28:12;;;;;;;50.00;26.37;;;9.80;99.90;;;;;;5110934;27;20210;-64
2021/11/13 01:30:41;;;;;;;49.50;26.97;;;9.90;99.90;;;;;;5123237;27;20285;-64
2021/11/13 01:33:10;;;;;;;52.23;27.53;;;9.90;99.90;;;;;;5109056;28;20233;-65
2021/11/13 01:35:38;;;;;;;57.33;26.90;;;9.80;99.90;;;;;;5106175;27;20203;-65
2021/11/13 01:38:07;;;;;;;59.63;28.20;;;9.80;99.90;;;;;;5113216;27;20751;-65
2021/11/13 01:40:40;;;;;;;65.30;29.27;;;9.80;99.90;;;;;;5139085;27;20206;-65
2021/11/13 01:43:08;;;;;;;53.50;27.80;;;9.90;99.90;;;;;;5111891;27;20615;-65
2021/11/13 01:45:37;;;;;;;60.23;29.03;;;9.80;99.90;;;;;;5111091;27;20233;-65
2021/11/13 01:48:06;;;;;;;57.87;28.67;;;9.90;99.90;;;;;;5107460;27;20194;-65
2021/11/13 01:50:37;;;;;;;52.73;26.87;;;9.90;99.90;;;;;;5118214;27;20282;-65
2021/11/13 01:53:05;;;;;;;51.73;26.03;;;9.90;99.90;;;;;;5103320;27;20246;-65
2021/11/13 01:55:36;;;;;;;53.23;27.27;;;9.90;99.90;;;;;;5103228;27;20199;-65
2021/11/13 01:58:11;;;;;;;53.07;27.57;;;9.90;99.90;;;;;;5109270;27;20199;-65
2021/11/13 02:00:43;;;;;;;54.93;27.07;;;10.00;99.90;;;;;;5107984;27;20198;-65
2021/11/13 02:03:13;;;;;;;59.47;27.27;;;10.00;99.90;;;;;;5138458;27;20182;-66
2021/11/13 02:05:45;;;;;;;52.27;26.70;;;10.00;99.90;;;;;;5104337;27;20203;-65
2021/11/13 02:08:13;;;;;;;53.60;26.53;;;9.90;99.90;;;;;;5117532;27;20650;-65
2021/11/13 02:10:42;;;;;;;54.03;25.47;;;10.00;99.90;;;;;;5111748;27;20298;-65
2021/11/13 02:13:13;;;;;;;54.23;26.27;;;10.00;99.90;;;;;;5111920;27;20264;-65
2021/11/13 02:15:41;;;;;;;49.70;26.03;;;10.10;99.90;;;;;;5106954;27;20199;-65
2021/11/13 02:18:10;;;;;;;49.10;26.07;;;10.10;99.90;;;;;;5111269;27;20250;-66
2021/11/13 02:20:41;;;;;;;53.47;26.33;;;10.10;99.90;;;;;;5108774;27;20226;-65
2021/11/13 02:23:12;;;;;;;49.87;25.70;;;10.10;99.90;;;;;;5104219;27;20252;-66
2021/11/13 02:25:42;;;;;;;55.93;24.70;;;10.10;99.90;;;;;;5109242;27;20301;-65
2021/11/13 02:28:13;;;;;;;46.50;24.50;;;10.10;99.90;;;;;;5108387;27;20270;-65
2021/11/13 02:30:42;;;;;;;52.43;24.73;;;10.20;99.90;;;;;;5104163;27;20193;-65
2021/11/13 02:33:11;;;;;;;52.63;23.87;;;10.20;99.90;;;;;;5112215;27;20226;-65
2021/11/13 02:35:42;;;;;;;46.70;22.43;;;10.20;99.90;;;;;;5106778;27;20276;-65
2021/11/13 02:38:13;;;;;;;39.63;21.47;;;10.20;99.90;;;;;;5107634;27;20226;-66
2021/11/13 02:40:43;;;;;;;37.87;18.97;;;10.30;99.90;;;;;;5111436;27;20230;-65
2021/11/13 02:43:12;;;;;;;26.70;15.60;;;10.20;99.90;;;;;;5107747;27;20256;-66
2021/11/13 02:45:42;;;;;;;31.43;14.73;;;10.30;99.90;;;;;;5103965;27;20210;-66
2021/11/13 02:48:14;;;;;;;21.00;11.97;;;10.30;99.90;;;;;;5098720;27;20203;-66
2021/11/13 02:50:44;;;;;;;23.10;10.83;;;10.30;99.90;;;;;;5109359;27;20203;-65
2021/11/13 02:53:16;;;;;;;14.90;8.90;;;10.40;99.90;;;;;;5103537;27;21715;-66
2021/11/13 02:55:45;;;;;;;11.47;6.63;;;10.40;99.90;;;;;;5109475;27;20194;-65
2021/11/13 02:58:13;;;;;;;7.43;5.53;;;10.40;99.90;;;;;;5113799;27;20211;-65
2021/11/13 03:00:44;;;;;;;8.77;4.77;;;10.50;99.90;;;;;;5111062;27;20201;-65
2021/11/13 03:03:17;;;;;;;4.87;4.40;;;10.40;99.90;;;;;;5102933;27;20252;-66
2021/11/13 03:05:49;;;;;;;5.97;3.97;;;10.40;99.90;;;;;;5106746;27;20253;-65
2021/11/13 03:08:21;;;;;;;4.03;3.70;;;10.50;99.90;;;;;;5104856;27;20218;-65
2021/11/13 03:10:51;;;;;;;3.67;3.40;;;10.50;99.90;;;;;;5118049;27;20218;-65
2021/11/13 03:13:19;;;;;;;3.67;3.37;;;10.40;99.90;;;;;;5117801;27;20688;-65
2021/11/13 03:15:48;;;;;;;3.27;2.70;;;10.40;99.90;;;;;;5109959;27;20195;-65
2021/11/13 03:18:17;;;;;;;2.80;2.60;;;10.30;99.90;;;;;;5102636;27;20195;-66
2021/11/13 03:20:48;;;;;;;2.60;2.50;;;10.30;99.90;;;;;;5113327;27;20206;-66
2021/11/13 03:23:17;;;;;;;2.63;2.43;;;10.20;99.90;;;;;;5100560;27;20221;-65
2021/11/13 03:25:52;;;;;;;4.83;2.90;;;10.20;99.90;;;;;;5099161;27;20215;-65
2021/11/13 03:28:24;;;;;;;3.17;2.90;;;10.20;99.90;;;;;;5108878;27;20768;-65
2021/11/13 03:30:53;;;;;;;4.70;3.30;;;10.20;99.90;;;;;;5106740;27;20229;-65
2021/11/13 03:33:22;;;;;;;4.43;3.43;;;10.10;99.90;;;;;;5110764;27;20198;-65
2021/11/13 03:35:52;;;;;;;4.00;3.70;;;10.30;99.90;;;;;;5109961;27;20207;-65
2021/11/13 03:38:21;;;;;;;6.10;4.20;;;10.30;99.90;;;;;;5101122;27;20233;-65
2021/11/13 03:40:50;;;;;;;5.33;4.83;;;10.20;99.90;;;;;;5106556;27;20195;-65
2021/11/13 03:43:19;;;;;;;6.07;5.57;;;10.30;99.90;;;;;;5102599;27;20277;-65
2021/11/13 03:45:50;;;;;;;7.70;6.50;;;10.30;99.90;;;;;;5101451;27;20265;-65
2021/11/13 03:48:19;;;;;;;8.57;7.60;;;10.40;99.90;;;;;;5105072;27;20656;-65
2021/11/13 03:50:48;;;;;;;12.40;7.20;;;10.40;99.90;;;;;;5111973;27;20222;-65
2021/11/13 03:53:18;;;;;;;13.63;7.87;;;10.40;99.90;;;;;;5101487;27;20310;-65
2021/11/13 03:55:46;;;;;;;10.80;7.63;;;10.40;99.90;;;;;;5101376;27;20277;-65
2021/11/13 03:58:15;;;;;;;13.37;7.70;;;10.40;99.90;;;;;;5115700;27;20201;-66
2021/11/13 04:00:44;;;;;;;13.40;7.43;;;10.40;99.90;;;;;;5112817;27;20187;-65
2021/11/13 04:03:13;;;;;;;11.27;7.93;;;10.40;99.90;;;;;;5109523;27;20191;-66
2021/11/13 04:05:49;;;;;;;17.03;8.13;;;10.50;99.90;;;;;;5105640;27;20191;-66
2021/11/13 04:08:19;;;;;;;15.13;8.30;;;10.50;99.90;;;;;;5102130;27;20282;-65
2021/11/13 04:10:56;;;;;;;12.53;8.37;;;10.50;99.90;;;;;;5110478;27;20343;-66
2021/11/13 04:13:24;;;;;;;16.67;8.17;;;10.50;99.90;;;;;;5102999;27;20225;-65
2021/11/13 04:15:53;;;;;;;12.47;8.77;;;10.50;99.90;;;;;;5098770;27;20613;-66
2021/11/13 04:18:22;;;;;;;17.93;8.50;;;10.60;99.90;;;;;;5106802;27;20200;-66
2021/11/13 04:20:51;;;;;;;16.47;8.50;;;10.50;99.90;;;;;;5105869;27;20245;-66
2021/11/13 04:23:21;;;;;;;15.70;9.23;;;10.60;99.90;;;;;;5109273;27;20222;-66
2021/11/13 04:25:49;;;;;;;18.57;8.80;;;10.60;99.90;;;;;;5108988;27;20744;-66
2021/11/13 04:28:17;;;;;;;14.07;7.57;;;10.60;99.90;;;;;;5114336;27;20199;-66
2021/11/13 04:30:46;;;;;;;17.23;8.83;;;10.60;99.90;;;;;;5107835;27;20657;-66
2021/11/13 04:33:14;;;;;;;15.03;8.67;;;10.60;99.90;;;;;;5107842;27;20210;-65
2021/11/13 04:35:47;;;;;;;15.77;8.40;;;10.60;99.90;;;;;;5106886;28;20199;-66
2021/11/13 04:38:16;;;;;;;12.80;8.20;;;10.70;99.90;;;;;;5110569;27;20225;-66
2021/11/13 04:40:47;;;;;;;17.83;8.77;;;10.70;99.90;;;;;;5108963;27;20200;-66
2021/11/13 04:43:15;;;;;;;18.80;8.60;;;10.60;99.90;;;;;;5101608;28;20718;-65
2021/11/13 04:45:44;;;;;;;14.73;9.10;;;10.70;99.90;;;;;;5106156;27;20217;-65
2021/11/13 04:48:12;;;;;;;17.23;9.57;;;10.80;99.90;;;;;;5104595;28;20210;-66
2021/11/13 04:50:41;;;;;;;14.60;9.03;;;10.80;99.90;;;;;;5103600;28;20669;-66
2021/11/13 04:53:09;;;;;;;20.07;9.40;;;10.80;99.90;;;;;;5099978;28;20233;-66
2021/11/13 04:55:38;;;;;;;16.23;9.53;;;10.80;99.90;;;;;;5111272;27;20205;-66
2021/11/13 04:58:08;;;;;;;20.20;10.07;;;10.80;99.90;;;;;;5104390;27;20202;-65
2021/11/13 05:00:37;;;;;;;20.97;9.70;;;10.80;99.90;;;;;;5105980;27;20661;-66
2021/11/13 05:03:05;;;;;;;20.97;9.90;;;10.80;99.90;;;;;;5114641;27;20271;-66
2021/11/13 05:05:34;;;;;;;22.83;10.87;;;10.70;99.90;;;;;;5109911;27;20203;-66
2021/11/13 05:08:03;;;;;;;18.63;10.07;;;10.70;99.90;;;;;;5105974;27;20779;-66
2021/11/13 05:10:32;;;;;;;21.33;9.97;;;10.80;99.90;;;;;;5105440;27;20253;-66
2021/11/13 05:13:01;;;;;;;22.00;10.37;;;10.80;99.90;;;;;;5112225;27;20222;-66
2021/11/13 05:15:32;;;;;;;21.87;10.73;;;10.70;99.90;;;;;;5113989;27;20598;-66
2021/11/13 05:18:00;;;;;;;19.83;10.33;;;10.70;99.90;;;;;;5113590;27;20203;-66
2021/11/13 05:20:31;;;;;;;22.23;10.40;;;10.80;99.90;;;;;;5110138;27;20194;-65
2021/11/13 05:23:00;;;;;;;20.17;10.00;;;10.80;99.90;;;;;;5117644;27;20213;-65
2021/11/13 05:25:28;;;;;;;25.97;10.73;;;10.90;99.90;;;;;;5107434;27;20212;-66
2021/11/13 05:27:57;;;;;;;24.90;10.00;;;10.90;99.90;;;;;;5113802;27;20218;-66
2021/11/13 05:30:28;;;;;;;26.27;10.20;;;10.90;99.90;;;;;;5109468;27;20230;-66
2021/11/13 05:32:58;;;;;;;23.53;10.67;;;10.80;99.90;;;;;;5115513;27;20194;-66
2021/11/13 05:35:27;;;;;;;23.70;10.07;;;10.90;99.90;;;;;;5110571;27;20194;-66
2021/11/13 05:37:56;;;;;;;18.87;9.40;;;10.80;99.90;;;;;;5115169;27;20222;-66
2021/11/13 05:40:25;;;;;;;17.17;8.87;;;10.90;99.90;;;;;;5112197;27;20191;-65
2021/11/13 05:42:54;;;;;;;16.53;8.10;;;10.90;99.90;;;;;;5105653;27;20231;-66
2021/11/13 05:45:26;;;;;;;21.67;7.83;;;11.00;99.90;;;;;;5103354;28;20191;-65
2021/11/13 05:47:55;;;;;;;18.40;7.30;;;10.90;99.90;;;;;;5109628;27;20216;-66
2021/11/13 05:50:27;;;;;;;21.17;7.40;;;10.90;99.90;;;;;;5101940;27;20203;-66
2021/11/13 05:52:55;;;;;;;21.30;6.57;;;10.90;99.90;;;;;;5111383;27;20232;-66
2021/11/13 05:55:24;;;;;;;18.77;6.90;;;10.90;99.90;;;;;;5103318;27;20260;-66
2021/11/13 05:57:54;;;;;;;15.63;5.67;;;10.90;99.90;;;;;;5115941;27;20700;-65
2021/11/13 06:00:24;;;;;;;14.07;5.80;;;10.90;99.90;;;;;;5102510;28;20841;-67
2021/11/13 06:03:14;;;;;;;21.03;6.00;;;10.90;99.90;;;;;;5107477;27;20282;-65
2021/11/13 06:05:44;;;;;;;15.63;6.13;;;11.00;99.90;;;;;;5103483;27;20183;-66
2021/11/13 06:08:13;;;;;;;10.17;4.80;;;11.00;99.90;;;;;;5104765;27;21009;-66
2021/11/13 06:10:41;;;;;;;15.67;5.20;;;10.90;99.90;;;;;;5104947;27;20203;-66
2021/11/13 06:13:10;;;;;;;13.47;5.03;;;11.00;99.90;;;;;;5107567;27;20277;-66
2021/11/13 06:15:38;;;;;;;12.03;5.27;;;10.90;99.90;;;;;;5110948;27;20219;-66
2021/11/13 06:18:07;;;;;;;15.03;6.10;;;11.00;99.90;;;;;;5107750;27;20195;-66
2021/11/13 06:20:37;;;;;;;10.97;5.60;;;10.90;99.90;;;;;;5106844;27;20206;-66
2021/11/13 06:23:06;;;;;;;17.60;5.97;;;11.00;99.90;;;;;;5110206;27;20195;-66
2021/11/13 06:25:35;;;;;;;13.93;5.83;;;10.90;99.90;;;;;;5126114;27;20206;-66
2021/11/13 06:28:05;;;;;;;17.60;6.17;;;11.00;99.90;;;;;;5101013;27;20198;-66
2021/11/13 06:30:33;;;;;;;13.63;5.07;;;11.00;99.90;;;;;;5104648;27;20203;-66
2021/11/13 06:33:11;;;;;;;11.23;5.47;;;10.90;99.90;;;;;;5103821;27;20906;-66
2021/11/13 06:35:40;;;;;;;18.57;5.57;;;10.90;99.90;;;;;;5109019;27;20222;-67
2021/11/13 06:38:10;;;;;;;16.10;5.93;;;10.90;99.90;;;;;;5107657;27;20642;-67
2021/11/13 06:40:39;;;;;;;14.80;6.33;;;10.90;99.90;;;;;;5107318;27;20663;-67
2021/11/13 06:45:58;;;;;;;16.43;7.17;;;11.00;99.90;;;;;;5104828;27;20618;-67
2021/11/13 06:48:27;;;;;;;15.27;6.90;;;10.90;99.90;;;;;;5105011;27;20327;-67
2021/11/13 06:50:55;;;;;;;17.63;7.23;;;10.90;99.90;;;;;;5105519;27;20247;-67
2021/11/13 06:53:25;;;;;;;17.47;6.83;;;10.90;99.90;;;;;;5108701;27;20195;-66
2021/11/13 06:57:31;;;;;;;11.13;5.70;;;10.90;99.90;;;;;;5100212;27;20202;-66
2021/11/13 07:00:13;;;;;;;11.20;5.00;;;10.90;99.90;;;;;;5100128;27;20202;-66
2021/11/13 07:02:42;;;;;;;13.30;5.50;;;10.90;99.90;;;;;;5105834;27;20285;-67
2021/11/13 07:05:11;;;;;;;10.47;5.57;;;10.80;99.90;;;;;;5099082;27;20208;-67
2021/11/13 07:07:40;;;;;;;10.90;5.30;;;10.80;99.90;;;;;;5097870;28;20215;-67
2021/11/13 07:10:12;;;;;;;11.30;5.73;;;10.80;99.90;;;;;;5109950;27;20648;-67
2021/11/13 07:12:41;;;;;;;8.40;5.43;;;10.80;99.90;;;;;;5105140;27;20205;-67
2021/11/13 07:15:11;;;;;;;12.50;6.53;;;10.80;99.90;;;;;;5105722;27;20202;-67
2021/11/13 07:17:39;;;;;;;9.17;6.07;;;10.80;99.90;;;;;;5104872;27;20195;-67
2021/11/13 07:20:09;;;;;;;8.77;6.30;;;10.70;99.90;;;;;;5099710;27;20201;-67
2021/11/13 07:22:40;;;;;;;17.43;7.23;;;10.80;99.90;;;;;;5106319;27;20725;-67
2021/11/13 07:25:14;;;;;;;12.47;7.43;;;10.70;99.90;;;;;;5105799;27;20256;-67
2021/11/13 07:27:46;;;;;;;14.70;9.30;;;10.80;99.90;;;;;;5101217;27;20245;-66
2021/11/13 07:30:17;;;;;;;17.50;8.87;;;10.80;99.90;;;;;;5101719;27;20203;-66
2021/11/13 07:32:50;;;;;;;11.27;7.30;;;10.80;99.90;;;;;;5098104;28;20658;-67
2021/11/13 07:35:19;;;;;;;13.67;7.20;;;10.80;99.90;;;;;;5101410;27;20179;-67
2021/11/13 07:37:48;;;;;;;15.87;7.20;;;10.80;99.90;;;;;;5104872;27;20277;-66
2021/11/13 07:40:18;;;;;;;12.90;7.17;;;10.80;99.90;;;;;;5104712;27;20226;-67
2021/11/13 07:42:46;;;;;;;16.33;7.20;;;10.80;99.90;;;;;;5105376;27;20661;-66
2021/11/13 07:45:15;;;;;;;12.47;6.80;;;10.80;99.90;;;;;;5097853;28;20226;-66
2021/11/13 07:47:44;;;;;;;11.53;7.00;;;10.80;99.90;;;;;;5103094;27;20273;-67
2021/11/13 07:50:15;;;;;;;11.60;6.80;;;10.80;99.90;;;;;;5104310;28;20244;-66
2021/11/13 07:52:45;;;;;;;12.17;6.60;;;10.90;99.90;;;;;;5107828;28;20200;-67
2021/11/13 07:55:58;;;;;;;9.23;6.23;;;10.90;99.90;;;;;;5093402;28;21528;-67
2021/11/13 07:58:27;;;;;;;9.07;6.10;;;10.90;99.90;;;;;;5099640;28;20263;-67
2021/11/13 08:01:03;;;;;;;11.50;5.90;;;11.00;99.90;;;;;;5105261;28;20190;-67
2021/11/13 08:03:32;;;;;;;10.07;6.10;;;10.90;99.90;;;;;;5106732;28;20195;-67
2021/11/13 08:06:00;;;;;;;15.17;6.60;;;10.90;99.90;;;;;;5100256;28;20198;-67
2021/11/13 08:08:29;;;;;;;9.97;6.47;;;10.90;99.90;;;;;;5104617;27;20245;-67
2021/11/13 08:11:01;;;;;;;8.43;5.73;;;10.90;99.90;;;;;;5109676;27;20286;-67
2021/11/13 08:13:29;;;;;;;10.13;5.60;;;10.90;99.90;;;;;;5098984;27;20209;-67
2021/11/13 08:15:57;;;;;;;8.30;5.70;;;11.00;99.90;;;;;;5105399;27;20187;-67
2021/11/13 08:18:27;;;;;;;7.70;5.33;;;11.00;99.90;;;;;;5104046;27;20191;-66
2021/11/13 08:21:04;;;;;;;10.20;6.00;;;11.00;99.90;;;;;;5101010;27;20187;-67
2021/11/13 08:23:33;;;;;;;9.27;5.60;;;11.00;99.90;;;;;;5108536;27;20198;-67
2021/11/13 08:26:03;;;;;;;7.27;6.23;;;11.10;99.90;;;;;;5099791;27;20221;-67
2021/11/13 08:28:32;;;;;;;9.73;6.60;;;11.10;99.90;;;;;;5102285;28;20293;-67
2021/11/13 08:31:00;;;;;;;11.13;6.53;;;11.00;99.90;;;;;;5099896;28;20295;-67
2021/11/13 08:33:29;;;;;;;10.60;6.43;;;11.10;99.90;;;;;;5102530;28;20244;-67
2021/11/13 08:35:58;;;;;;;14.43;6.73;;;11.10;99.90;;;;;;5099686;28;20201;-67
2021/11/13 08:38:26;;;;;;;12.10;6.70;;;11.30;99.90;;;;;;5102415;27;20635;-66
2021/11/13 08:40:58;;;;;;;10.50;6.77;;;11.30;99.90;;;;;;5098453;28;20305;-67
2021/11/13 08:43:28;;;;;;;15.13;6.67;;;11.30;99.90;;;;;;5119628;27;20209;-67
2021/11/13 08:45:57;;;;;;;10.70;7.23;;;11.20;99.90;;;;;;5105258;28;20234;-67
2021/11/13 08:48:25;;;;;;;13.63;8.10;;;11.20;99.90;;;;;;5101751;28;21063;-67
2021/11/13 08:50:54;;;;;;;16.20;8.60;;;11.20;99.90;;;;;;5105030;28;20195;-67
2021/11/13 08:53:22;;;;;;;14.43;8.90;;;11.30;99.90;;;;;;5099144;28;20233;-67
2021/11/13 08:55:51;;;;;;;13.03;9.17;;;11.30;99.90;;;;;;5104526;28;20222;-67
2021/11/13 08:58:19;;;;;;;17.60;9.33;;;11.30;99.90;;;;;;5101501;28;20279;-67
2021/11/13 09:00:51;;;;;;;15.40;8.10;;;11.40;99.90;;;;;;5099313;28;20277;-67
2021/11/13 09:03:22;;;;;;;9.47;8.40;;;11.40;99.90;;;;;;5103354;28;20226;-67
2021/11/13 09:05:52;;;;;;;13.40;8.33;;;11.40;99.90;;;;;;5099290;28;20214;-67
2021/11/13 09:08:21;;;;;;;15.33;8.33;;;11.40;99.90;;;;;;5102653;28;20291;-67
2021/11/13 09:10:50;;;;;;;15.27;8.10;;;11.30;99.90;;;;;;5102182;28;20286;-67
2021/11/13 09:13:21;;;;;;;11.40;7.60;;;11.50;99.90;;;;;;5102941;28;20214;-67
2021/11/13 09:15:51;;;;;;;13.23;7.40;;;11.60;99.90;;;;;;5098366;28;20220;-66
2021/11/13 09:18:20;;;;;;;12.00;6.80;;;11.60;99.90;;;;;;5098813;28;20205;-66
2021/11/13 09:20:48;;;;;;;13.90;7.07;;;11.60;99.90;;;;;;5102914;28;20227;-67
2021/11/13 09:23:17;;;;;;;12.57;7.70;;;11.70;99.90;;;;;;5106919;28;20218;-67
2021/11/13 09:25:47;;;;;;;11.60;7.27;;;11.90;99.90;;;;;;5096372;28;20220;-67
2021/11/13 09:28:16;;;;;;;12.53;6.30;;;12.10;99.90;;;;;;5108385;28;20301;-67
2021/11/13 09:30:45;;;;;;;11.57;6.07;;;12.20;99.90;;;;;;5109423;28;20521;-67
2021/11/13 09:33:15;;;;;;;9.73;5.93;;;12.50;99.90;;;;;;5099834;27;20203;-67
2021/11/13 09:35:45;;;;;;;10.23;4.73;;;12.70;99.90;;;;;;5104736;28;20747;-67
2021/11/13 09:38:25;;;;;;;5.57;4.60;;;12.60;99.90;;;;;;5100810;28;20395;-67
2021/11/13 09:40:54;;;;;;;6.20;4.50;;;12.50;99.90;;;;;;5100908;28;20260;-67
2021/11/13 09:43:24;;;;;;;5.23;4.67;;;12.40;99.90;;;;;;5099925;27;20607;-66
2021/11/13 09:45:54;;;;;;;11.90;4.67;;;12.30;99.90;;;;;;5112239;27;20213;-67
2021/11/13 09:48:25;;;;;;;8.57;4.80;;;12.20;99.90;;;;;;5106419;28;20650;-66
2021/11/13 09:50:53;;;;;;;6.63;4.40;;;12.20;99.90;;;;;;5097062;27;20226;-67
2021/11/13 09:53:25;;;;;;;9.90;4.63;;;12.20;99.90;;;;;;5109160;28;20211;-67
2021/11/13 09:55:54;;;;;;;5.87;4.03;;;12.30;99.90;;;;;;5112127;27;20912;-67
2021/11/13 09:58:23;;;;;;;8.60;4.60;;;12.30;99.90;;;;;;5104614;27;20194;-66
2021/11/13 10:00:52;;;;;;;6.17;4.30;;;12.30;99.90;;;;;;5101441;27;20192;-67
2021/11/13 10:03:21;;;;;;;9.00;5.03;;;12.30;99.90;;;;;;5095643;28;20200;-67
2021/11/13 10:05:55;;;;;;;7.83;5.07;;;12.20;99.90;;;;;;5100708;28;20874;-67
2021/11/13 10:08:24;;;;;;;7.23;4.80;;;12.20;99.90;;;;;;5101800;27;20195;-67
2021/11/13 10:10:59;;;;;;;9.67;4.43;;;12.10;99.90;;;;;;5105983;27;20775;-66
2021/11/13 10:13:31;;;;;;;7.73;4.80;;;12.10;99.90;;;;;;5103283;27;20259;-66
2021/11/13 10:16:02;;;;;;;10.27;4.90;;;12.10;99.90;;;;;;5109066;27;20203;-67
2021/11/13 10:18:33;;;;;;;5.80;4.60;;;12.10;99.90;;;;;;5106213;27;20269;-67
2021/11/13 10:21:08;;;;;;;10.83;5.37;;;12.10;99.90;;;;;;5103133;27;20221;-60
2021/11/13 10:23:41;;;;;;;6.33;4.70;;;12.30;99.90;;;;;;5102094;27;20273;-61
2021/11/13 10:26:13;;;;;;;7.97;4.63;;;12.40;99.90;;;;;;5110150;27;20194;-61
2021/11/13 10:28:49;;;;;;;10.97;4.90;;;12.50;99.90;;;;;;5106548;27;20237;-62
2021/11/13 10:31:21;;;;;;;4.80;4.40;;;12.60;99.90;;;;;;5107177;27;20211;-61
2021/11/13 10:33:50;;;;;;;7.33;4.80;;;12.80;99.90;;;;;;5108704;27;20198;-61
2021/11/13 10:36:29;;;;;;;5.50;4.33;;;12.80;99.90;;;;;;5106677;27;20210;-59
2021/11/13 10:39:00;;;;;;;5.97;4.17;;;12.80;99.90;;;;;;5112550;27;20316;-58
2021/11/13 10:41:29;;;;;;;6.17;4.67;;;12.80;99.90;;;;;;5112857;27;20198;-59
2021/11/13 10:43:59;;;;;;;5.53;3.70;;;12.90;99.90;;;;;;5103464;27;20199;-58
2021/11/13 10:46:27;;;;;;;8.30;4.70;;;13.00;99.90;;;;;;5106734;27;20195;-59
2021/11/13 10:48:59;;;;;;;7.47;4.63;;;12.90;99.90;;;;;;5106558;28;20641;-60
2021/11/13 10:51:31;;;;;;;7.60;4.73;;;12.90;99.90;;;;;;5102640;28;20203;-59
2021/11/13 10:54:08;;;;;;;7.80;4.57;;;12.90;99.90;;;;;;5108287;28;20198;-59
2021/11/13 10:56:43;;;;;;;7.83;4.30;;;12.90;99.90;;;;;;5105753;27;20203;-59
2021/11/13 10:59:12;;;;;;;8.60;4.40;;;12.80;99.90;;;;;;5108890;28;20721;-59
2021/11/13 11:01:44;;;;;;;6.87;4.80;;;12.80;99.90;;;;;;5106104;27;20202;-60
2021/11/13 11:04:16;;;;;;;6.93;5.03;;;12.70;99.90;;;;;;5099958;28;20289;-59
2021/11/13 11:06:49;;;;;;;9.30;4.77;;;12.60;99.90;;;;;;5105903;27;20251;-60
2021/11/13 11:09:24;;;;;;;6.77;4.50;;;12.50;99.90;;;;;;5096493;27;20290;-60
2021/11/13 11:11:54;;;;;;;6.67;4.20;;;12.50;99.90;;;;;;5104596;27;20206;-60
2021/11/13 11:14:25;;;;;;;9.57;4.40;;;12.40;99.90;;;;;;5099232;27;20194;-60
2021/11/13 11:16:55;;;;;;;5.20;4.70;;;12.40;99.90;;;;;;5104805;27;20186;-60
2021/11/13 11:19:26;;;;;;;7.03;4.80;;;12.30;99.90;;;;;;5096065;27;20210;-60
2021/11/13 11:22:02;;;;;;;7.07;5.20;;;12.30;99.90;;;;;;5101608;27;20204;-60
2021/11/13 11:24:35;;;;;;;4.80;4.27;;;12.30;99.90;;;;;;5104082;27;20206;-60
2021/11/13 11:27:11;;;;;;;3.60;3.30;;;12.40;99.90;;;;;;5097537;27;20203;-60
2021/11/13 11:29:49;;;;;;;5.37;3.27;;;12.50;99.90;;;;;;5091902;28;20691;-60
2021/11/13 11:32:28;;;;;;;3.20;2.97;;;12.70;99.90;;;;;;5109609;27;20184;-60
2021/11/13 11:35:00;;;;;;;3.27;3.03;;;12.80;99.90;;;;;;5105553;27;20194;-60
2021/11/13 11:37:33;;;;;;;4.03;2.90;;;12.80;99.90;;;;;;5105649;27;20644;-60
2021/11/13 11:40:08;;;;;;;2.60;2.40;;;12.70;99.90;;;;;;5103114;27;20196;-60
2021/11/13 11:42:37;;;;;;;4.43;2.97;;;12.80;99.90;;;;;;5105419;27;20201;-59
2021/11/13 11:45:07;;;;;;;3.30;1.90;;;12.80;99.90;;;;;;5099026;27;20777;-59
2021/11/13 11:47:38;;;;;;;3.60;1.90;;;12.80;99.90;;;;;;5095070;27;20244;-60
2021/11/13 11:50:09;;;;;;;2.90;2.70;;;12.90;99.90;;;;;;5096326;27;20250;-59
2021/11/13 11:52:41;;;;;;;2.83;2.47;;;13.00;99.90;;;;;;5097702;28;20281;-59
2021/11/13 11:55:12;;;;;;;1.93;1.93;;;13.00;99.90;;;;;;5102515;27;20203;-60
2021/11/13 11:57:43;;;;;;;2.27;2.10;;;13.00;99.90;;;;;;5100143;28;20187;-60
2021/11/13 12:00:15;;;;;;;4.43;2.70;;;12.90;99.90;;;;;;5097665;27;20241;-59
2021/11/13 12:03:06;;;;;;;4.37;2.43;;;12.80;99.90;;;;;;5101415;28;20222;-59
2021/11/13 12:05:39;;;;;;;3.30;3.00;;;12.80;99.90;;;;;;5102015;27;20202;-60
2021/11/13 12:08:19;;;;;;;3.27;2.93;;;12.70;99.90;;;;;;5099817;27;20676;-60
2021/11/13 12:10:48;;;;;;;6.17;3.57;;;12.70;99.90;;;;;;5103761;27;20267;-60
2021/11/13 12:13:18;;;;;;;4.30;3.93;;;12.70;99.90;;;;;;5101677;27;20631;-59
2021/11/13 12:15:48;;;;;;;5.63;3.80;;;12.80;99.90;;;;;;5104250;27;20198;-59
2021/11/13 12:18:21;;;;;;;3.77;3.13;;;12.90;99.90;;;;;;5102511;27;20234;-59
2021/11/13 12:20:50;;;;;;;2.83;2.60;;;13.00;99.90;;;;;;5094202;27;20240;-59
2021/11/13 12:23:29;;;;;;;2.53;2.33;;;13.10;99.90;;;;;;5096931;27;20244;-60
2021/11/13 12:26:09;;;;;;;2.60;2.40;;;13.20;99.90;;;;;;5108008;27;20259;-60
2021/11/13 12:28:52;;;;;;;3.37;2.90;;;13.30;99.90;;;;;;5100520;27;20217;-60
2021/11/13 12:31:22;;;;;;;3.30;2.70;;;13.40;99.90;;;;;;5099795;28;20246;-60
2021/11/13 12:34:08;;;;;;;5.13;2.83;;;13.40;99.90;;;;;;5095629;27;20739;-60
2021/11/13 12:36:48;;;;;;;6.77;2.80;;;13.50;99.90;;;;;;5100469;28;20247;-59
2021/11/13 12:39:19;;;;;;;2.80;2.60;;;13.50;99.90;;;;;;5105898;27;20193;-59
2021/11/13 12:42:05;;;;;;;3.30;2.67;;;13.50;99.90;;;;;;5102826;27;20192;-59
2021/11/13 12:44:40;;;;;;;3.70;2.37;;;13.40;99.90;;;;;;5104679;28;20192;-60
2021/11/13 12:47:13;;;;;;;3.20;2.47;;;13.20;99.90;;;;;;5103599;28;20195;-60
2021/11/13 12:50:01;;;;;;;2.30;2.20;;;13.10;99.90;;;;;;5109441;28;21669;-59
2021/11/13 12:52:33;;;;;;;3.13;2.30;;;12.90;99.90;;;;;;5098518;28;20790;-60
2021/11/13 12:55:24;;;;;;;5.07;2.60;;;13.00;99.90;;;;;;5100559;28;20202;-60
2021/11/13 12:58:03;;;;;;;3.43;2.60;;;13.20;99.90;;;;;;5108937;28;20673;-60
2021/11/13 13:00:35;;;;;;;5.13;2.30;;;13.50;99.90;;;;;;5103083;28;20197;-60